createdAt,value
2023-01-23T00:04:46.361Z,20.70
2023-01-23T00:09:48.088Z,20.10
2023-01-23T00:14:49.791Z,20.25
2023-01-23T00:19:55.013Z,20.75
2023-01-23T00:24:56.673Z,19.67
2023-01-23T00:29:58.659Z,20.55
2023-01-23T00:35:00.657Z,21.63
2023-01-23T00:40:02.481Z,20.08
2023-01-23T00:45:04.442Z,20.23
2023-01-23T00:50:06.479Z,20.40
2023-01-23T00:55:08.872Z,20.05
2023-01-23T01:00:11.148Z,18.92
2023-01-23T01:05:12.845Z,19.08
2023-01-23T01:10:15.360Z,19.85
2023-01-23T01:15:17.154Z,20.63
2023-01-23T01:20:19.207Z,21.15
2023-01-23T01:25:21.475Z,19.50
2023-01-23T01:30:23.243Z,19.45
2023-01-23T01:35:25.247Z,19.55
2023-01-23T01:40:34.340Z,20.90
2023-01-23T01:46:02.144Z,20.48
2023-01-23T01:51:15.524Z,18.48
2023-01-23T01:56:18.547Z,20.05
2023-01-23T02:01:20.820Z,20.43
2023-01-23T02:06:22.655Z,20.02
2023-01-23T02:11:24.717Z,20.35
2023-01-23T02:16:40.018Z,20.23
2023-01-23T02:21:43.523Z,19.13
2023-01-23T02:26:46.423Z,19.30
2023-01-23T02:31:49.585Z,19.13
2023-01-23T02:36:51.330Z,21.40
2023-01-23T02:41:54.258Z,20.25
2023-01-23T02:46:57.989Z,19.03
2023-01-23T02:51:59.793Z,19.38
2023-01-23T02:57:01.979Z,19.27
2023-01-23T03:02:05.402Z,20.00
2023-01-23T03:07:07.269Z,18.95
2023-01-23T03:12:09.213Z,20.15
2023-01-23T03:17:11.106Z,20.15
2023-01-23T03:22:12.890Z,19.73
2023-01-23T03:27:14.664Z,20.85
2023-01-23T03:32:16.564Z,20.33
2023-01-23T03:37:19.595Z,20.92
2023-01-23T03:42:21.585Z,20.13
2023-01-23T03:47:23.252Z,19.20
2023-01-23T03:52:25.523Z,19.90
2023-01-23T03:57:27.149Z,20.77
2023-01-23T04:02:29.264Z,19.15
2023-01-23T04:07:30.973Z,18.77
2023-01-23T04:12:32.685Z,18.80
2023-01-23T04:17:34.318Z,20.05
2023-01-23T04:22:35.986Z,19.13
2023-01-23T04:27:37.625Z,20.05
2023-01-23T04:32:39.357Z,18.83
2023-01-23T04:37:41.118Z,18.63
2023-01-23T04:42:42.852Z,20.42
2023-01-23T04:47:44.571Z,19.52
2023-01-23T04:52:46.194Z,20.40
2023-01-23T04:57:47.850Z,20.05
2023-01-23T05:02:50.363Z,19.10
2023-01-23T05:07:52.641Z,19.20
2023-01-23T05:12:54.306Z,18.73
2023-01-23T05:17:56.016Z,18.75
2023-01-23T05:22:58.593Z,19.00
2023-01-23T05:28:02.300Z,18.48
2023-01-23T05:33:04.047Z,18.08
2023-01-23T05:38:06.421Z,19.10
2023-01-23T05:43:09.877Z,18.08
2023-01-23T05:48:11.562Z,19.92
2023-01-23T05:53:13.219Z,19.15
2023-01-23T05:58:16.037Z,18.08
2023-01-23T06:03:17.958Z,19.33
2023-01-23T06:08:19.626Z,19.00
2023-01-23T06:13:21.268Z,18.30
2023-01-23T06:18:23.481Z,17.30
2023-01-23T06:23:25.217Z,19.25
2023-01-23T06:28:26.880Z,17.83
2023-01-23T06:33:28.530Z,18.80
2023-01-23T06:38:30.580Z,18.27
2023-01-23T06:43:32.254Z,18.67
2023-01-23T06:48:34.179Z,19.50
2023-01-23T06:53:36.376Z,18.30
2023-01-23T06:58:40.963Z,17.77
2023-01-23T07:03:44.861Z,29.08
2023-01-23T07:08:46.875Z,17.20
2023-01-23T07:13:48.584Z,17.27
2023-01-23T07:18:50.248Z,17.33
2023-01-23T07:23:52.055Z,15.85
2023-01-23T07:28:53.855Z,16.88
2023-01-23T07:33:55.649Z,16.60
2023-01-23T07:38:59.049Z,17.27
2023-01-23T07:44:00.738Z,16.58
2023-01-23T07:49:02.409Z,18.67
2023-01-23T07:54:04.483Z,16.90
2023-01-23T07:59:06.253Z,16.95
2023-01-23T08:04:08.179Z,16.30
2023-01-23T08:09:12.942Z,15.30
2023-01-23T08:14:14.620Z,15.32
2023-01-23T08:19:16.868Z,15.70
2023-01-23T08:24:18.579Z,15.32
2023-01-23T08:29:20.222Z,14.80
2023-01-23T08:34:23.941Z,16.60
2023-01-23T08:39:25.819Z,14.77
2023-01-23T08:44:27.642Z,16.17
2023-01-23T08:49:29.420Z,15.88
2023-01-23T08:54:31.228Z,15.90
2023-01-23T08:59:32.935Z,16.33
2023-01-23T09:04:34.686Z,17.00
2023-01-23T09:09:36.591Z,15.38
2023-01-23T09:14:38.335Z,15.70
2023-01-23T09:19:39.994Z,17.98
2023-01-23T09:24:41.678Z,15.20
2023-01-23T09:29:43.403Z,15.23
2023-01-23T09:34:45.155Z,15.23
2023-01-23T09:39:47.254Z,14.52
2023-01-23T09:44:53.982Z,14.27
2023-01-23T09:50:22.115Z,15.90
2023-01-23T09:55:49.016Z,16.17
2023-01-23T10:00:51.611Z,13.45
2023-01-23T10:06:25.311Z,13.43
2023-01-23T10:11:44.984Z,12.50
2023-01-23T10:17:10.081Z,12.02
2023-01-23T10:22:34.813Z,10.77
2023-01-23T10:27:42.210Z,11.48
2023-01-23T10:32:52.350Z,11.00
2023-01-23T10:37:56.675Z,11.93
2023-01-23T10:43:02.552Z,12.93
2023-01-23T10:48:39.757Z,12.38
2023-01-23T10:53:41.546Z,12.02
2023-01-23T10:58:43.386Z,11.80
2023-01-23T11:03:45.784Z,11.13
2023-01-23T11:09:00.419Z,12.05
2023-01-23T11:14:16.661Z,10.32
2023-01-23T11:19:22.496Z,10.25
2023-01-23T11:24:39.690Z,9.85
2023-01-23T11:30:12.977Z,10.63
2023-01-23T11:35:34.164Z,9.93
2023-01-23T11:40:36.689Z,10.18
2023-01-23T11:45:44.262Z,9.90
2023-01-23T11:51:23.149Z,11.00
2023-01-23T11:56:33.666Z,7.90
2023-01-23T12:01:58.428Z,9.18
2023-01-23T12:07:18.103Z,7.07
2023-01-23T12:12:51.302Z,7.25
2023-01-23T12:18:11.440Z,6.85
2023-01-23T12:23:28.058Z,14.30
2023-01-23T12:28:52.755Z,7.22
2023-01-23T12:34:05.361Z,7.50
2023-01-23T12:39:30.116Z,6.78
2023-01-23T12:44:36.883Z,7.57
2023-01-23T12:50:02.617Z,7.18
2023-01-23T12:55:20.716Z,6.25
2023-01-23T13:00:44.363Z,7.38
2023-01-23T13:06:01.194Z,5.30
2023-01-23T13:11:21.361Z,6.97
2023-01-23T13:16:29.536Z,8.50
2023-01-23T13:21:49.932Z,6.25
2023-01-23T13:26:51.587Z,6.70
2023-01-23T13:32:21.224Z,7.20
2023-01-23T13:37:29.124Z,6.90
2023-01-23T13:42:30.749Z,6.85
2023-01-23T14:21:04.793Z,6.72
2023-01-23T14:26:11.391Z,7.57
2023-01-23T14:31:22.803Z,7.03
2023-01-23T14:36:24.621Z,7.50
2023-01-23T14:41:32.816Z,6.55
2023-01-23T14:46:37.805Z,6.68
2023-01-23T14:51:39.616Z,7.10
2023-01-23T14:56:41.635Z,7.85
2023-01-23T15:01:52.617Z,6.90
2023-01-23T15:06:57.978Z,6.90
2023-01-23T15:12:07.725Z,7.60
2023-01-23T15:17:21.096Z,7.50
2023-01-23T15:22:28.744Z,6.83
2023-01-23T15:27:37.907Z,8.80
2023-01-23T15:32:39.804Z,8.23
2023-01-23T15:37:47.840Z,7.82
2023-01-23T15:43:12.052Z,7.75
2023-01-23T15:53:15.798Z,8.50
2023-01-23T15:58:17.505Z,9.70
2023-01-23T16:03:19.226Z,8.45
2023-01-23T16:08:23.032Z,9.00
2023-01-23T16:13:24.877Z,10.23
2023-01-23T16:18:26.577Z,9.38
2023-01-23T16:23:35.819Z,9.32
2023-01-23T16:28:44.204Z,9.00
2023-01-23T16:33:45.922Z,9.95
2023-01-23T16:38:56.231Z,10.05
2023-01-23T16:43:57.950Z,10.00
2023-01-23T16:49:00.295Z,9.82
2023-01-23T16:54:14.185Z,9.68
2023-01-23T16:59:40.032Z,10.82
2023-01-23T17:04:41.701Z,10.00
2023-01-23T17:09:44.788Z,10.23
2023-01-23T17:14:48.438Z,11.37
2023-01-23T17:19:50.143Z,10.98
2023-01-23T17:24:54.712Z,11.00
2023-01-23T17:29:59.492Z,11.30
2023-01-23T17:35:05.846Z,10.80
2023-01-23T17:40:12.837Z,10.10
2023-01-23T17:45:19.606Z,9.95
2023-01-23T17:50:23.201Z,10.45
2023-01-23T17:55:28.727Z,10.27
2023-01-23T18:00:30.388Z,9.77
2023-01-23T18:05:32.071Z,10.20
2023-01-23T18:10:35.113Z,10.18
2023-01-23T18:16:11.121Z,10.40
2023-01-23T18:21:15.375Z,11.05
2023-01-23T18:26:47.823Z,10.63
2023-01-23T18:32:24.192Z,12.20
2023-01-23T18:37:58.378Z,11.32
2023-01-23T18:43:33.436Z,11.27
2023-01-23T18:48:35.484Z,11.10
2023-01-23T18:53:55.229Z,11.43
2023-01-23T18:59:15.467Z,17.27
2023-01-23T19:04:17.938Z,11.50
2023-01-23T19:09:21.072Z,13.30
2023-01-23T19:14:47.255Z,10.80
2023-01-23T19:20:04.525Z,11.63
2023-01-23T19:25:14.053Z,12.77
2023-01-23T19:30:16.339Z,12.93
2023-01-23T19:35:18.139Z,14.10
2023-01-23T19:40:19.952Z,11.73
2023-01-23T19:45:21.959Z,12.35
2023-01-23T19:50:23.930Z,11.90
2023-01-23T19:55:33.493Z,11.77
2023-01-23T20:00:38.447Z,11.68
2023-01-23T20:05:40.203Z,12.45
2023-01-23T20:10:41.877Z,12.23
2023-01-23T20:15:43.524Z,11.93
2023-01-23T20:20:45.191Z,11.55
2023-01-23T20:25:56.909Z,11.52
2023-01-23T20:31:12.710Z,11.52
2023-01-23T20:36:15.947Z,12.15
2023-01-23T20:41:19.506Z,11.83
2023-01-23T20:46:21.458Z,12.20
2023-01-23T20:51:23.181Z,11.80
2023-01-23T20:56:27.726Z,10.13
2023-01-23T21:01:52.703Z,11.27
2023-01-23T21:06:54.523Z,11.00
2023-01-23T21:11:56.536Z,10.43
2023-01-23T21:16:58.414Z,11.30
2023-01-23T21:22:00.134Z,11.55
2023-01-23T21:27:05.277Z,11.38
2023-01-23T21:32:07.009Z,11.20
2023-01-23T21:37:10.826Z,11.13
2023-01-23T21:42:12.536Z,11.02
2023-01-23T21:47:14.291Z,10.57
2023-01-23T21:52:15.898Z,10.85
2023-01-23T21:57:17.548Z,10.98
2023-01-23T22:02:19.195Z,10.55
2023-01-23T22:07:20.904Z,10.98
2023-01-23T22:12:22.545Z,11.25
2023-01-23T22:17:24.314Z,13.23
2023-01-23T22:22:26.075Z,11.13
2023-01-23T22:27:27.995Z,10.52
2023-01-23T22:32:29.630Z,10.48
2023-01-23T22:37:31.320Z,11.30
2023-01-23T22:42:32.972Z,11.05
2023-01-23T22:47:34.650Z,11.73
2023-01-23T22:52:36.409Z,10.70
2023-01-23T22:57:38.235Z,11.38
2023-01-23T23:02:40.066Z,11.80
2023-01-23T23:07:41.768Z,13.80
2023-01-23T23:12:43.361Z,11.70
2023-01-23T23:17:46.167Z,12.07
2023-01-23T23:22:47.896Z,11.88
2023-01-23T23:27:49.536Z,10.65
2023-01-23T23:32:51.179Z,11.10
2023-01-23T23:37:52.811Z,11.07
2023-01-23T23:42:54.482Z,10.73
2023-01-23T23:47:56.217Z,10.88
2023-01-23T23:52:57.947Z,10.88
2023-01-23T23:57:59.658Z,12.23
